Terminal Aerodrome Forecast
Issued by NWS Charleston, WV

Home | Current Version | Previous Version | Text Only | Print | Product List | Glossary On
Versions: 1 2 3 4 5 6 7 8 9 10 11 12 13 14 15 16 17 18 19 20 21 22 23 24 25
000
FTUS41 KRLX 181732
TAFHTS
TAF
KHTS 181732Z 1818/1918 21015G26KT P6SM SCT040
      TEMPO 1900/1901 4SM SHRA OVC025
     FM190100 20014G24KT P6SM OVC035
      TEMPO 1901/1903 2SM SHRA OVC025
     FM190300 26018G35KT P6SM SHRA OVC015
     FM190400 28013G22KT P6SM OVC015
     FM190500 29015G26KT P6SM OVC015
     FM190800 27013G22KT P6SM OVC020=

USA.gov is the U.S. government's official web portal to all federal, state and local government web resources and services.